Daily Reports
[Refresh to Update]

Barometric Pressure Shown is Corrected to Site Pressure


Today's History

10/14/19
Time         Wind Dir   Wind Spd  Wind Gust   Humidity       Temp   Tot Rain   Barom SL   24HrRain   RainRate  MonthRain
                            mph        mph          %         F         in         in         in      in/hr         in
12:00am           135        7.0       10.0       55.0       53.6      21.63      28.71       0.00      0.000       0.24
12:10am           128        7.0        8.0       55.0       53.5      21.63      28.71       0.00      0.000       0.24
12:20am           132        3.0        5.0       56.0       53.2      21.63      28.71       0.00      0.000       0.24
12:30am           123        7.0        9.0       56.0       52.9      21.63      28.71       0.00      0.000       0.24
12:40am           145        6.0        9.0       57.0       52.7      21.63      28.71       0.00      0.000       0.24
12:50am           138        7.0        8.0       58.0       52.4      21.63      28.71       0.00      0.000       0.24
1:00am            143        8.0       10.0       58.0       52.3      21.63      28.71       0.00      0.000       0.24
1:10am            174        7.0        9.0       59.0       52.0      21.63      28.72       0.00      0.000       0.24
1:20am            163        7.0        9.0       59.0       51.9      21.63      28.72       0.00      0.000       0.24
1:30am            175        4.0        4.0       60.0       51.7      21.63      28.72       0.00      0.000       0.24
1:40am            204        7.0        8.0       59.0       51.8      21.63      28.73       0.00      0.000       0.24
1:50am            182        6.0        7.0       60.0       51.9      21.63      28.73       0.00      0.000       0.24
2:00am            190        6.0        6.0       60.0       51.8      21.63      28.73       0.00      0.000       0.24
2:10am            182        5.0        9.0       61.0       51.5      21.63      28.73       0.00      0.000       0.24
2:20am            196        6.0        6.0       61.0       51.2      21.63      28.73       0.00      0.000       0.24
2:30am            171        5.0        5.0       63.0       50.6      21.63      28.73       0.00      0.000       0.24
2:40am            170        5.0        5.0       64.0       50.0      21.63      28.73       0.00      0.000       0.24
2:50am            184        4.0        6.0       65.0       49.4      21.63      28.73       0.00      0.000       0.24
3:00am            184        4.0        4.0       66.0       48.8      21.63      28.73       0.00      0.000       0.24
3:10am            207        3.0        3.0       67.0       48.3      21.63      28.73       0.00      0.000       0.24
3:20am            212        3.0        4.0       69.0       47.6      21.63      28.74       0.00      0.000       0.24
3:30am            208        4.0        4.0       69.0       47.1      21.63      28.74       0.00      0.000       0.24
3:40am            211        3.0        3.0       70.0       46.7      21.63      28.74       0.00      0.000       0.24
3:50am            223        2.0        2.0       72.0       46.3      21.63      28.74       0.00      0.000       0.24
4:00am            242        2.0        2.0       73.0       45.7      21.63      28.74       0.00      0.000       0.24
4:10am            226        3.0        3.0       74.0       45.6      21.63      28.74       0.00      0.000       0.24
4:20am            246        4.0        5.0       74.0       45.3      21.63      28.75       0.00      0.000       0.24
4:30am            244        4.0        4.0       76.0       44.6      21.63      28.75       0.00      0.000       0.24
4:40am            259        4.0        6.0       78.0       44.0      21.63      28.76       0.00      0.000       0.24
4:50am            246        3.0        4.0       79.0       43.7      21.63      28.76       0.00      0.000       0.24
5:00am            243        3.0        3.0       80.0       43.1      21.63      28.76       0.00      0.000       0.24
5:10am            242        3.0        3.0       81.0       43.2      21.63      28.77       0.00      0.000       0.24
5:20am            243        4.0        4.0       81.0       43.1      21.63      28.77       0.00      0.000       0.24

 


Yesterday's History

10/13/19
Time         Wind Dir   Wind Spd  Wind Gust   Humidity       Temp   Tot Rain   Barom SL   24HrRain   RainRate  MonthRain
                            mph        mph          %         F         in         in         in      in/hr         in
12:00am           120        5.0        7.0       68.0       42.1      21.63      28.85       0.10      0.000       0.24
12:10am           123        4.0        6.0       68.0       41.9      21.63      28.85       0.10      0.000       0.24
12:20am           113        6.0        6.0       69.0       41.8      21.63      28.85       0.10      0.000       0.24
12:30am           113        3.0        4.0       70.0       41.6      21.63      28.85       0.10      0.000       0.24
12:40am           113        3.0        3.0       70.0       41.6      21.63      28.86       0.10      0.000       0.24
12:50am            98        4.0        4.0       70.0       41.6      21.63      28.85       0.09      0.000       0.24
1:00am            106        6.0        8.0       70.0       41.8      21.63      28.85       0.07      0.000       0.24
1:10am            109        7.0        8.0       70.0       42.0      21.63      28.85       0.07      0.000       0.24
1:20am            115        7.0        9.0       69.0       42.1      21.63      28.84       0.06      0.000       0.24
1:30am            122        8.0       11.0       69.0       42.0      21.63      28.84       0.05      0.000       0.24
1:40am            125        8.0       11.0       69.0       42.1      21.63      28.83       0.05      0.000       0.24
1:50am            130        8.0       10.0       70.0       42.1      21.63      28.83       0.04      0.000       0.24
2:00am            136        8.0        9.0       70.0       41.8      21.63      28.83       0.02      0.000       0.24
2:10am            130        7.0        7.0       72.0       41.3      21.63      28.84       0.01      0.000       0.24
2:20am            129        8.0       10.0       73.0       40.9      21.63      28.84       0.01      0.000       0.24
2:30am            118        7.0        9.0       73.0       40.9      21.63      28.84       0.01      0.000       0.24
2:40am            126        7.0        8.0       73.0       40.6      21.63      28.84       0.01      0.000       0.24
2:50am            125        8.0        9.0       74.0       40.3      21.63      28.84       0.01      0.000       0.24
3:00am            110        3.0        8.0       73.0       40.8      21.63      28.84       0.01      0.000       0.24
3:10am            119        5.0        8.0       72.0       41.5      21.63      28.84       0.01      0.000       0.24
3:20am            144        9.0        9.0       71.0       42.0      21.63      28.84       0.01      0.000       0.24
3:30am            134        5.0        9.0       70.0       42.2      21.63      28.84       0.01      0.000       0.24
3:40am            129        8.0        9.0       70.0       42.3      21.63      28.83       0.01      0.000       0.24
3:50am            133        8.0        9.0       70.0       42.3      21.63      28.83       0.01      0.000       0.24
4:00am            122        9.0        9.0       71.0       42.0      21.63      28.82       0.00      0.000       0.24
4:10am            105        4.0        6.0       72.0       41.5      21.63      28.83       0.00      0.000       0.24
4:30am            146        5.0        7.0       73.0       40.7      21.63      28.82       0.00      0.000       0.24
4:40am             98        4.0        7.0       75.0       39.8      21.63      28.82       0.00      0.000       0.24
4:50am            120        4.0        4.0       76.0       39.5      21.63      28.83       0.00      0.000       0.24
5:00am            127        5.0        7.0       76.0       39.5      21.63      28.83       0.00      0.000       0.24
5:10am            127        8.0        9.0       75.0       39.9      21.63      28.83       0.00      0.000       0.24
5:20am            133        9.0        9.0       73.0       40.6      21.63      28.83       0.00      0.000       0.24
5:30am            138        7.0        9.0       72.0       41.1      21.63      28.82       0.00      0.000       0.24
5:40am            144        6.0        6.0       72.0       41.5      21.63      28.82       0.00      0.000       0.24
5:50am            134        8.0       10.0       71.0       41.6      21.63      28.82       0.00      0.000       0.24
6:00am            128        5.0        7.0       71.0       41.6      21.63      28.82       0.00      0.000       0.24
6:10am            136        9.0       10.0       72.0       41.5      21.63      28.82       0.00      0.000       0.24
6:20am             98        7.0        9.0       72.0       41.3      21.63      28.82       0.00      0.000       0.24
6:30am            124        9.0       11.0       73.0       41.0      21.63      28.81       0.00      0.000       0.24
6:40am            135       10.0       10.0       73.0       40.8      21.63      28.82       0.00      0.000       0.24
6:50am            144        8.0       11.0       74.0       40.3      21.63      28.82       0.00      0.000       0.24
7:00am            123        5.0       11.0       75.0       40.0      21.63      28.82       0.00      0.000       0.24
7:10am            142        6.0       10.0       76.0       39.8      21.63      28.82       0.00      0.000       0.24
7:20am            139        8.0        8.0       75.0       39.9      21.63      28.82       0.00      0.000       0.24
7:30am            138        7.0        8.0       75.0       40.1      21.63      28.82       0.00      0.000       0.24
7:40am            146       10.0       10.0       74.0       40.5      21.63      28.82       0.00      0.000       0.24
7:50am            130        8.0        9.0       73.0       40.7      21.63      28.82       0.00      0.000       0.24
8:00am            127       10.0       11.0       72.0       41.2      21.63      28.82       0.00      0.000       0.24
8:10am            148       10.0       10.0       72.0       41.4      21.63      28.82       0.00      0.000       0.24
8:20am            126        8.0        8.0       72.0       41.4      21.63      28.82       0.00      0.000       0.24
8:30am            115        8.0        9.0       71.0       41.6      21.63      28.81       0.00      0.000       0.24
8:40am            121       12.0       13.0       71.0       41.8      21.63      28.82       0.00      0.000       0.24
8:50am            123       11.0       11.0       71.0       42.2      21.63      28.81       0.00      0.000       0.24
9:00am            115        8.0        8.0       72.0       42.3      21.63      28.82       0.00      0.000       0.24
9:10am            123        8.0       10.0       69.0       43.4      21.63      28.81       0.00      0.000       0.24
9:20am            140        9.0       10.0       68.0       44.7      21.63      28.81       0.00      0.000       0.24
9:30am            150       10.0       12.0       66.0       46.7      21.63      28.82       0.00      0.000       0.24
9:40am            140        9.0       11.0       63.0       47.9      21.63      28.81       0.00      0.000       0.24
9:50am            115       10.0       11.0       62.0       48.3      21.63      28.81       0.00      0.000       0.24
10:00am           131       13.0       16.0       63.0       48.6      21.63      28.80       0.00      0.000       0.24
10:10am           140       18.0       18.0       60.0       49.7      21.63      28.80       0.00      0.000       0.24
10:20am           127       12.0       16.0       58.0       50.5      21.63      28.80       0.00      0.000       0.24
10:30am           138       16.0       16.0       56.0       51.4      21.63      28.79       0.00      0.000       0.24
10:40am           140       16.0       17.0       55.0       52.4      21.63      28.79       0.00      0.000       0.24
10:50am           141       13.0       15.0       50.0       53.6      21.63      28.79       0.00      0.000       0.24
11:00am           163       20.0       20.0       49.0       54.3      21.63      28.79       0.00      0.000       0.24
11:10am           151       14.0       20.0       49.0       54.6      21.63      28.79       0.00      0.000       0.24
11:20am           140       14.0       20.0       49.0       54.9      21.63      28.78       0.00      0.000       0.24
11:30am           140       16.0       16.0       49.0       55.4      21.63      28.79       0.00      0.000       0.24
11:40am           145       14.0       16.0       48.0       55.5      21.63      28.78       0.00      0.000       0.24
11:50am           159       12.0       14.0       47.0       56.6      21.63      28.79       0.00      0.000       0.24
12:00pm           173       12.0       12.0       46.0       57.8      21.63      28.78       0.00      0.000       0.24
12:10pm           161       15.0       20.0       44.0       57.8      21.63      28.77       0.00      0.000       0.24
12:20pm           128       13.0       14.0       44.0       58.2      21.63      28.77       0.00      0.000       0.24
12:30pm           168       17.0       18.0       43.0       59.3      21.63      28.77       0.00      0.000       0.24
12:40pm           130       16.0       19.0       42.0       60.1      21.63      28.76       0.00      0.000       0.24
12:50pm           156       18.0       18.0       42.0       60.5      21.63      28.76       0.00      0.000       0.24
1:00pm            158       21.0       25.0       38.0       61.2      21.63      28.75       0.00      0.000       0.24
1:10pm            142       19.0       19.0       39.0       61.2      21.63      28.75       0.00      0.000       0.24
1:20pm            167       19.0       21.0       37.0       61.8      21.63      28.75       0.00      0.000       0.24
1:30pm            143       16.0       17.0       38.0       61.8      21.63      28.74       0.00      0.000       0.24
1:40pm            162       21.0       25.0       37.0       62.0      21.63      28.74       0.00      0.000       0.24
1:50pm            144       16.0       17.0       36.0       62.7      21.63      28.73       0.00      0.000       0.24
2:00pm            127       16.0       18.0       37.0       62.9      21.63      28.72       0.00      0.000       0.24
2:10pm            146       14.0       22.0       35.0       63.2      21.63      28.72       0.00      0.000       0.24
2:20pm            140        9.0       15.0       35.0       63.0      21.63      28.71       0.00      0.000       0.24
2:30pm            129       18.0       24.0       35.0       63.8      21.63      28.71       0.00      0.000       0.24
2:40pm            138       11.0       14.0       35.0       63.9      21.63      28.70       0.00      0.000       0.24
2:50pm            161       15.0       16.0       35.0       64.3      21.63      28.69       0.00      0.000       0.24
3:00pm            140       13.0       13.0       35.0       64.4      21.63      28.69       0.00      0.000       0.24
3:10pm            166       12.0       12.0       34.0       65.1      21.63      28.69       0.00      0.000       0.24
3:20pm            146       19.0       24.0       32.0       65.3      21.63      28.68       0.00      0.000       0.24
3:30pm            135       13.0       18.0       33.0       65.6      21.63      28.68       0.00      0.000       0.24
3:40pm            139       12.0       16.0       32.0       65.8      21.63      28.68       0.00      0.000       0.24
3:50pm            146       16.0       17.0       32.0       65.9      21.63      28.68       0.00      0.000       0.24
4:00pm            139       22.0       24.0       32.0       65.8      21.63      28.68       0.00      0.000       0.24
4:10pm            153       14.0       21.0       32.0       66.1      21.63      28.68       0.00      0.000       0.24
4:20pm            155       13.0       20.0       32.0       66.1      21.63      28.67       0.00      0.000       0.24
4:30pm            191       10.0       14.0       32.0       66.3      21.63      28.67       0.00      0.000       0.24
4:40pm            136       16.0       22.0       31.0       66.3      21.63      28.67       0.00      0.000       0.24
4:50pm            148       17.0       17.0       31.0       66.1      21.63      28.67       0.00      0.000       0.24
5:00pm            153        9.0       16.0       33.0       65.9      21.63      28.67       0.00      0.000       0.24
5:10pm            190       13.0       22.0       32.0       66.0      21.63      28.67       0.00      0.000       0.24
5:20pm            126       19.0       20.0       32.0       65.5      21.63      28.67       0.00      0.000       0.24
5:30pm            164       16.0       16.0       33.0       65.4      21.63      28.67       0.00      0.000       0.24
5:40pm            155       14.0       14.0       33.0       65.3      21.63      28.67       0.00      0.000       0.24
5:50pm            141       10.0       13.0       34.0       65.2      21.63      28.67       0.00      0.000       0.24
6:00pm            146       11.0       12.0       34.0       64.7      21.63      28.67       0.00      0.000       0.24
6:10pm            154       15.0       21.0       34.0       64.4      21.63      28.67       0.00      0.000       0.24
6:20pm            128       11.0       15.0       35.0       64.0      21.63      28.67       0.00      0.000       0.24
6:30pm            141        7.0        9.0       36.0       63.5      21.63      28.67       0.00      0.000       0.24
6:40pm            140       10.0       12.0       37.0       62.9      21.63      28.67       0.00      0.000       0.24
6:50pm            122        9.0       11.0       38.0       62.2      21.63      28.67       0.00      0.000       0.24
7:00pm            125        5.0       10.0       39.0       61.6      21.63      28.68       0.00      0.000       0.24
7:10pm            121        8.0        9.0       40.0       60.7      21.63      28.68       0.00      0.000       0.24
7:20pm            123        8.0        9.0       40.0       60.4      21.63      28.68       0.00      0.000       0.24
7:30pm            123        5.0        8.0       41.0       59.9      21.63      28.68       0.00      0.000       0.24
7:40pm            117        8.0        9.0       42.0       59.3      21.63      28.68       0.00      0.000       0.24
7:49pm            126        8.0       10.0       43.0       58.8      21.63      28.69       0.00      0.000       0.24
8:00pm            109       10.0       10.0       43.0       58.5      21.63      28.68       0.00      0.000       0.24
8:09pm            113        9.0       11.0       43.0       58.4      21.63      28.68       0.00      0.000       0.24
8:20pm            109        8.0        9.0       44.0       57.8      21.63      28.68       0.00      0.000       0.24
8:29pm            116        7.0        9.0       46.0       56.9      21.63      28.68       0.00      0.000       0.24
8:40pm            128        8.0        8.0       47.0       56.5      21.63      28.68       0.00      0.000       0.24
8:50pm            111        7.0        9.0       47.0       56.4      21.63      28.68       0.00      0.000       0.24
9:00pm            127        5.0        5.0       47.0       56.2      21.63      28.69       0.00      0.000       0.24
9:10pm            112        4.0        7.0       48.0       55.9      21.63      28.69       0.00      0.000       0.24
9:20pm            162        4.0        4.0       49.0       55.4      21.63      28.69       0.00      0.000       0.24
9:30pm            130        9.0       12.0       47.0       56.1      21.63      28.69       0.00      0.000       0.24
9:40pm            143       12.0       12.0       46.0       56.8      21.63      28.69       0.00      0.000       0.24
9:50pm            142        6.0        7.0       46.0       56.8      21.63      28.69       0.00      0.000       0.24
10:00pm           132        3.0        6.0       47.0       56.4      21.63      28.70       0.00      0.000       0.24
10:10pm           142        5.0        9.0       48.0       55.9      21.63      28.70       0.00      0.000       0.24
10:20pm           183        3.0        5.0       48.0       55.5      21.63      28.70       0.00      0.000       0.24
10:30pm           143        5.0        9.0       50.0       55.1      21.63      28.70       0.00      0.000       0.24
10:40pm           160        6.0        8.0       50.0       54.9      21.63      28.70       0.00      0.000       0.24
10:50pm           158        3.0        7.0       51.0       54.7      21.63      28.70       0.00      0.000       0.24
11:00pm           142        8.0        8.0       51.0       54.8      21.63      28.70       0.00      0.000       0.24
11:10pm           168       10.0       11.0       51.0       54.6      21.63      28.71       0.00      0.000       0.24
11:20pm           139        9.0       12.0       52.0       54.4      21.63      28.71       0.00      0.000       0.24
11:30pm           155        9.0       14.0       53.0       54.3      21.63      28.71       0.00      0.000       0.24
11:40pm           165       10.0       10.0       53.0       54.1      21.63      28.71       0.00      0.000       0.24
11:50pm           138       10.0       10.0       54.0       53.8      21.63      28.71       0.00      0.000       0.24


NOAA Yearly Report

                  YEARLY CLIMATOLOGICAL SUMMARY FOR 2019
                                        HEAT  COOL        
     MEAN                               DEG   DEG       WIND SPEED       DOM MEAN  MEAN
MON  TEMP  HIGH   DATE     LOW   DATE   DAYS  DAYS RAIN AVG  HI  DATE    DIR BAROM HUM
---------------------------------------------------------------------------------------
1    26.1  59.2   1/8/19  -8.5  1/30/19 1198    0  0.85   4  36  1/19/19  NE 28.95   83
2    31.7  58.3   2/7/19   4.0   2/1/19  933    0  3.43   8  56  2/24/19 SSW 28.94   84
3    36.0 158.0  3/14/19   5.4   3/5/19  898    0  2.72   9  46  3/10/19 SSW 28.97   75
4    51.8 158.0  4/14/19  20.8   4/1/19  411   16  4.10   9 254  4/18/19 ESE 28.74   69
5    62.8 158.0   5/1/19  34.4   5/1/19  171  103  5.78   8 207  5/17/19   S 28.73   78
6    69.5 158.0  6/27/19  46.9   6/3/19   48  182  6.64   8  87  6/27/19   S 28.71   73
7    75.9 158.0   7/2/19  54.2  7/25/19   13  340  2.33   6 152   7/2/19  SE 28.76   74
8    71.5  91.3  8/18/19  50.4  8/25/19   26  223  1.84   6 206  8/14/19   S 28.75   74
9    70.4  92.0  9/13/19  46.5  9/27/19   44  198  0.70   6  35  9/13/19 ESE 28.84   73
10   67.4  92.0  9/13/19  35.9 10/12/19  140  240  0.24   6  35  9/13/19 ESE 28.85   72
---------------------------------------------------------------------------------------
TOT  55.3 158.0  3/14/19  -8.5  1/30/19 3838 1104 21.61   7 254  4/18/19 ESE 28.88   76

HEAT BASE: 65.0
COOL BASE: 65.0


NOAA Monthly Report

                  MONTHLY CLIMATOLOGICAL SUMMARY FOR 10/2019
                                        HEAT  COOL        
     MEAN                               DEG   DEG       WIND SPEED       DOM MEAN  MEAN
DAY  TEMP  HIGH   TIME     LOW   TIME   DAYS  DAYS RAIN AVG  HI  TIME    DIR BAROM HUM
---------------------------------------------------------------------------------------
1    76.9  90.4   5:01pm  65.6   7:37am    0   22  0.00   5  29   5:01pm SSE 28.82   72
2    77.8  91.5   4:09pm  69.1  11:58pm    0   12  0.00   8  30  12:15pm   S 28.68   68
3    72.6  86.3   1:03pm  58.0  11:57pm    0    8  0.00  10  27  12:19pm  SW 28.73   77
4    54.5  63.1   4:03pm  46.3   6:05am   10    0  0.00   9  24  12:26am  NW 29.04   76
5    56.0  72.6   6:07pm  41.1   7:53am   10    1  0.00   4  17   1:32pm   E 28.94   71
6    63.5  71.1  11:19am  56.8  11:51pm    2    1  0.11   7  25  11:48am   S 28.84   78
7    57.2  64.9   4:47pm  46.0  11:57pm    7    0  0.00   2  12   5:08pm   W 28.94   77
8    55.3  68.7   4:47pm  40.0   7:16am    9    1  0.01   4  17   2:12pm   W 29.01   66
9    56.4  71.5   5:16pm  41.3   6:10am    9    1  0.00   4  16   1:47pm   W 28.96   72
10   61.4  78.3   4:27pm  45.8   6:49am    7    4  0.00   4  16   1:16pm   W 28.92   72
11   63.4  76.3   3:10pm  47.6  11:58pm    4    2  0.02   8  29  10:16pm ESE 28.78   79
12   44.7  53.1   4:57pm  35.9   7:03am   20    0  0.10  10  26   4:39am WSW 28.86   66
13   52.2  66.3   4:23pm  39.5   4:49am   13    0  0.00  10  30   4:40pm  SE 28.76   54
14   49.4  53.6  12:00am  43.1   4:57am    3    0  0.00   5  14  12:03am   S 28.73   65
---------------------------------------------------------------------------------------
TOT  67.4  92.0  9/13/19  35.9 10/12/19   96   52  0.24   6  35  9/13/19 ESE 28.85   72

HEAT BASE: 65.0
COOL BASE: 65.0